Aviation Digital Data Service (ADDS)

Output produced by METARs form (1826 UTC 16 August 2018)
found at http://www.aviationweather.gov/adds/metars/
 
TGPY 161622Z 1618/1718 10014KT 9999 SCT019 
     BECMG 1704/1706 6000 SHRA FEW014CB BKN018 
     BECMG 1715/1717 SCT018 SCT038